createdAt,value
2018-02-27T03:17:37.240Z,20.30
2018-02-27T03:47:43.422Z,21.27
2018-02-27T04:02:38.643Z,20.40
2018-02-27T04:17:37.039Z,21.85
2018-02-27T04:32:39.324Z,20.10
2018-02-27T04:47:37.593Z,17.98
2018-02-27T05:02:39.388Z,33.72
2018-02-27T05:17:38.397Z,39.85
2018-02-27T05:32:37.320Z,38.10
2018-02-27T05:47:37.755Z,41.97
2018-02-27T06:02:36.673Z,40.33
2018-02-27T06:17:34.546Z,46.05
2018-02-27T06:32:36.501Z,34.72
2018-02-27T06:47:35.879Z,30.83
2018-02-27T07:02:38.103Z,35.83
2018-02-27T07:17:38.520Z,43.42
2018-02-27T07:32:37.718Z,34.83
2018-02-27T07:47:37.565Z,31.52
2018-02-27T08:02:36.914Z,32.83
2018-02-27T08:17:34.803Z,32.53
2018-02-27T08:32:34.818Z,32.90
2018-02-27T08:47:35.182Z,46.20
2018-02-27T09:02:37.270Z,38.23
2018-02-27T09:17:35.062Z,42.33
2018-02-27T09:32:34.295Z,43.80
2018-02-27T09:47:36.865Z,59.03
2018-02-27T10:02:35.608Z,70.90
2018-02-27T10:32:36.954Z,59.60
2018-02-27T10:47:36.134Z,56.00
2018-02-27T11:02:36.176Z,48.83
2018-02-27T11:17:36.140Z,54.00
2018-02-27T11:32:36.378Z,42.97
2018-02-27T11:47:34.423Z,45.20
2018-02-27T12:02:34.363Z,48.73
2018-02-27T12:17:34.289Z,47.97
2018-02-27T12:32:36.710Z,36.03
2018-02-27T12:47:34.370Z,34.87
2018-02-27T13:02:36.041Z,20.37
2018-02-27T13:17:40.854Z,28.23
2018-02-27T13:32:39.923Z,24.73
2018-02-27T13:47:59.500Z,24.27
2018-02-27T14:02:34.895Z,23.03
2018-02-27T14:17:35.776Z,22.20
2018-02-27T14:32:35.018Z,28.07
2018-02-27T14:47:34.981Z,24.53
2018-02-27T15:02:36.983Z,31.77
2018-02-27T15:07:22.899Z,32.80
2018-02-27T15:09:50.467Z,36.63
2018-02-27T15:17:35.011Z,41.30
2018-02-27T15:32:34.934Z,44.40
2018-02-27T15:47:34.998Z,55.17
2018-02-27T16:02:35.175Z,48.93
2018-02-27T16:17:35.159Z,49.65
2018-02-27T16:32:43.304Z,36.65
2018-02-27T16:47:40.568Z,50.97
2018-02-27T17:02:34.864Z,26.50
2018-02-27T17:17:37.712Z,18.65
2018-02-27T17:32:39.745Z,19.40
2018-02-27T17:47:40.668Z,18.25
2018-02-27T18:02:42.576Z,18.60
2018-02-27T18:17:40.060Z,22.48
2018-02-27T18:32:37.509Z,23.55
2018-02-27T18:47:40.768Z,26.87
2018-02-27T19:17:53.972Z,28.38
2018-02-27T19:32:50.522Z,36.13
2018-02-27T20:02:40.796Z,36.30
2018-02-27T20:32:37.300Z,31.00
2018-02-27T21:02:41.452Z,29.33
2018-02-27T21:32:45.832Z,33.88
2018-02-27T22:47:47.099Z,20.15
2018-02-27T23:02:53.396Z,22.95
2018-02-27T23:32:48.368Z,28.85
2018-02-27T23:47:50.961Z,29.12
